| time (UTC) | temp C | wind direction | speed KPH | gust KPH | rain 1hr cm | rain 24hr cm | rain mn cm | humidity % | barometer mb |
| 20260502194552 | 23 | 278 | 1.6 | 4.8 | 0.00 | 0.00 | 0.00 | 19 | 1019.3 |
| 20260502193044 | 22 | 191 | 1.6 | 9.7 | 0.00 | 0.00 | 0.00 | 23 | 1019.5 |
| 20260502191546 | 23 | 205 | 3.2 | 11.3 | 0.00 | 0.00 | 0.00 | 18 | 1019.6 |
| 20260502190049 | 22 | 136 | 1.6 | 9.7 | 0.00 | 0.00 | 0.00 | 21 | 1019.7 |
| 20260502184547 | 22 | 231 | 0.0 | 4.8 | 0.00 | 0.00 | 0.00 | 20 | 1019.9 |
| 20260502183047 | 22 | 292 | 0.0 | 9.7 | 0.00 | 0.00 | 0.00 | 22 | 1020.1 |
| 20260502181550 | 21 | 103 | 3.2 | 8.0 | 0.00 | 0.00 | 0.00 | 24 | 1020.1 |
| 20260502163104 | 17 | 338 | 0.0 | 1.6 | 0.00 | 0.00 | 0.00 | 41 | 1020.8 |
| 20260502161558 | 16 | 197 | 0.0 | 3.2 | 0.00 | 0.00 | 0.00 | 41 | 1020.8 |
| 20260502151549 | 16 | 356 | 0.0 | 6.4 | 0.00 | 0.00 | 0.00 | 33 | 1021.0 |
| 20260502123110 | 3 | 0 | 0.0 | 0.0 | 0.00 | 0.00 | 0.00 | 62 | 1020.7 |
| 20260502121555 | 4 | 0 | 0.0 | 0.0 | 0.00 | 0.00 | 0.00 | 60 | 1020.8 |
| 20260502114547 | 3 | 0 | 0.0 | 0.0 | 0.00 | 0.00 | 0.00 | 62 | 1020.7 |
| 20260502113049 | 3 | 0 | 0.0 | 0.0 | 0.00 | 0.00 | 0.00 | 63 | 1020.8 |
| 20260502111549 | 3 | 0 | 0.0 | 0.0 | 0.00 | 0.00 | 0.00 | 64 | 1020.8 |
| 20260502110043 | 3 | 0 | 0.0 | 0.0 | 0.00 | 0.00 | 0.00 | 61 | 1020.7 |
| 20260502104548 | 3 | 0 | 0.0 | 0.0 | 0.00 | 0.00 | 0.00 | 61 | 1020.8 |
| 20260502103044 | 3 | 0 | 0.0 | 0.0 | 0.00 | 0.00 | 0.00 | 62 | 1020.8 |
| 20260502101549 | 3 | 0 | 0.0 | 0.0 | 0.00 | 0.00 | 0.00 | 62 | 1020.7 |
| 20260502080105 | 6 | 0 | 0.0 | 0.0 | 0.00 | 0.00 | 0.00 | 52 | 1020.5 |
| 20260502064552 | 7 | 0 | 0.0 | 0.0 | 0.00 | 0.00 | 0.00 | 49 | 1020.4 |
| 20260502063050 | 7 | 0 | 0.0 | 0.0 | 0.00 | 0.00 | 0.00 | 48 | 1020.3 |
| 20260502061545 | 8 | 0 | 0.0 | 0.0 | 0.00 | 0.00 | 0.00 | 46 | 1020.2 |
| 20260502060053 | 8 | 0 | 0.0 | 0.0 | 0.00 | 0.00 | 0.00 | 42 | 1020.3 |
| 20260502054549 | 9 | 0 | 0.0 | 0.0 | 0.00 | 0.00 | 0.00 | 40 | 1020.4 |
| 20260502053051 | 10 | 0 | 0.0 | 0.0 | 0.00 | 0.00 | 0.00 | 40 | 1020.4 |
| 20260502051557 | 10 | 0 | 0.0 | 0.0 | 0.00 | 0.00 | 0.00 | 38 | 1020.3 |
| 20260502050046 | 10 | 0 | 0.0 | 0.0 | 0.00 | 0.00 | 0.00 | 38 | 1020.5 |
| 20260502044548 | 9 | 0 | 0.0 | 0.0 | 0.00 | 0.00 | 0.00 | 40 | 1020.5 |
| 20260502043050 | 8 | 0 | 0.0 | 0.0 | 0.00 | 0.00 | 0.00 | 44 | 1020.5 |
| 20260502041546 | 8 | 0 | 0.0 | 0.0 | 0.00 | 0.00 | 0.00 | 42 | 1020.5 |
| 20260502040046 | 9 | 0 | 0.0 | 0.0 | 0.00 | 0.00 | 0.00 | 40 | 1020.4 |
| 20260502034549 | 10 | 0 | 0.0 | 0.0 | 0.00 | 0.00 | 0.00 | 36 | 1020.3 |
| 20260502033051 | 10 | 0 | 0.0 | 0.0 | 0.00 | 0.00 | 0.00 | 35 | 1020.2 |
| 20260502031549 | 11 | 0 | 0.0 | 1.6 | 0.00 | 0.00 | 0.00 | 34 | 1020.2 |
| 20260502030049 | 11 | 0 | 0.0 | 0.0 | 0.00 | 0.00 | 0.00 | 34 | 1020.0 |
| 20260502024549 | 11 | 0 | 0.0 | 0.0 | 0.00 | 0.00 | 0.00 | 34 | 1019.9 |
| 20260502023050 | 12 | 0 | 0.0 | 0.0 | 0.00 | 0.00 | 0.00 | 30 | 1019.9 |
| 20260502021550 | 13 | 0 | 0.0 | 0.0 | 0.00 | 0.00 | 0.00 | 26 | 1019.8 |
| 20260502020049 | 15 | 0 | 0.0 | 0.0 | 0.00 | 0.00 | 0.00 | 24 | 1019.8 |
| 20260502014544 | 16 | 0 | 0.0 | 1.6 | 0.00 | 0.00 | 0.00 | 23 | 1019.8 |
| 20260502013051 | 16 | 311 | 0.0 | 3.2 | 0.00 | 0.00 | 0.00 | 22 | 1019.7 |
| 20260502011548 | 17 | 0 | 0.0 | 3.2 | 0.00 | 0.00 | 0.00 | 22 | 1019.7 |
| 20260502010048 | 17 | 0 | 0.0 | 3.2 | 0.00 | 0.00 | 0.00 | 22 | 1019.8 |
| 20260502004547 | 17 | 0 | 0.0 | 3.2 | 0.00 | 0.00 | 0.00 | 22 | 1019.8 |
| 20260502003050 | 18 | 295 | 0.0 | 4.8 | 0.00 | 0.00 | 0.00 | 22 | 1019.8 |
| 20260502001554 | 18 | 202 | 0.0 | 4.8 | 0.00 | 0.00 | 0.00 | 22 | 1019.8 |
| 20260502000057 | 18 | 290 | 0.0 | 6.4 | 0.00 | 0.00 | 0.00 | 23 | 1019.8 |
| 20260501234546 | 18 | 0 | 0.0 | 3.2 | 0.00 | 0.00 | 0.00 | 24 | 1019.8 |
| 20260501233044 | 18 | 302 | 0.0 | 4.8 | 0.00 | 0.00 | 0.00 | 24 | 1019.9 |
| 20260501231543 | 20 | 241 | 0.0 | 6.4 | 0.00 | 0.00 | 0.00 | 24 | 1019.8 |
| 20260501230042 | 20 | 0 | 0.0 | 4.8 | 0.00 | 0.00 | 0.00 | 24 | 1020.0 |
| 20260501224550 | 19 | 206 | 0.0 | 4.8 | 0.00 | 0.00 | 0.00 | 24 | 1020.0 |
| 20260501223049 | 20 | 161 | 0.0 | 4.8 | 0.00 | 0.00 | 0.00 | 27 | 1020.2 |
| 20260501221553 | 20 | 329 | 1.6 | 4.8 | 0.00 | 0.00 | 0.00 | 26 | 1020.3 |
| 20260501220058 | 19 | 0 | 1.6 | 4.8 | 0.00 | 0.00 | 0.00 | 26 | 1020.5 |
| 20260501214553 | 20 | 0 | 0.0 | 3.2 | 0.00 | 0.00 | 0.00 | 27 | 1020.7 |
| 20260501213055 | 20 | 203 | 0.0 | 3.2 | 0.00 | 0.00 | 0.00 | 28 | 1020.9 |
| 20260501211546 | 20 | 281 | 1.6 | 4.8 | 0.00 | 0.00 | 0.00 | 28 | 1020.9 |
| 20260501210050 | 19 | 116 | 1.6 | 4.8 | 0.00 | 0.00 | 0.00 | 26 | 1021.1 |
| 20260501204541 | 19 | 155 | 0.0 | 6.4 | 0.00 | 0.00 | 0.00 | 31 | 1021.1 |
| 20260501203055 | 19 | 314 | 0.0 | 4.8 | 0.00 | 0.00 | 0.00 | 31 | 1021.3 |
| 20260501201557 | 19 | 335 | 0.0 | 4.8 | 0.00 | 0.00 | 0.00 | 31 | 1021.3 |
| 20260501200045 | 18 | 88 | 1.6 | 6.4 | 0.00 | 0.00 | 0.00 | 30 | 1021.4 |